sensor_id;sensor_type;location;lat;lon;timestamp;P1;durP1;ratioP1;P2;durP2;ratioP2
23716;SDS011;22094;52.130;5.598;2022-11-20T00:00:00;30.00;;;16.77;;
23716;SDS011;22094;52.130;5.598;2022-11-20T00:02:26;36.33;;;18.63;;
23716;SDS011;22094;52.130;5.598;2022-11-20T00:04:51;35.80;;;19.27;;
23716;SDS011;22094;52.130;5.598;2022-11-20T00:07:17;34.63;;;19.20;;
23716;SDS011;22094;52.130;5.598;2022-11-20T00:09:42;41.90;;;20.92;;
23716;SDS011;22094;52.130;5.598;2022-11-20T00:12:08;38.33;;;20.27;;
23716;SDS011;22094;52.130;5.598;2022-11-20T00:14:33;35.75;;;19.63;;
23716;SDS011;22094;52.130;5.598;2022-11-20T00:16:59;35.00;;;19.55;;
23716;SDS011;22094;52.130;5.598;2022-11-20T00:19:25;32.53;;;18.50;;
23716;SDS011;22094;52.130;5.598;2022-11-20T00:21:50;32.88;;;19.48;;
23716;SDS011;22094;52.130;5.598;2022-11-20T00:24:18;34.83;;;19.02;;
23716;SDS011;22094;52.130;5.598;2022-11-20T00:26:44;34.05;;;18.85;;
23716;SDS011;22094;52.130;5.598;2022-11-20T00:29:09;34.53;;;19.42;;
23716;SDS011;22094;52.130;5.598;2022-11-20T00:31:35;35.53;;;19.33;;
23716;SDS011;22094;52.130;5.598;2022-11-20T00:34:01;33.55;;;19.23;;
23716;SDS011;22094;52.130;5.598;2022-11-20T00:36:28;33.65;;;18.38;;
23716;SDS011;22094;52.130;5.598;2022-11-20T00:38:57;37.20;;;19.60;;
23716;SDS011;22094;52.130;5.598;2022-11-20T00:41:24;37.92;;;20.30;;
23716;SDS011;22094;52.130;5.598;2022-11-20T00:43:53;36.47;;;20.05;;
23716;SDS011;22094;52.130;5.598;2022-11-20T00:46:21;36.60;;;20.02;;
23716;SDS011;22094;52.130;5.598;2022-11-20T00:48:48;34.88;;;18.98;;
23716;SDS011;22094;52.130;5.598;2022-11-20T00:51:14;37.97;;;19.30;;
23716;SDS011;22094;52.130;5.598;2022-11-20T00:53:42;38.88;;;19.92;;
23716;SDS011;22094;52.130;5.598;2022-11-20T00:56:11;36.35;;;19.27;;
23716;SDS011;22094;52.130;5.598;2022-11-20T00:58:40;40.75;;;20.73;;
23716;SDS011;22094;52.130;5.598;2022-11-20T01:01:09;35.60;;;19.73;;
23716;SDS011;22094;52.130;5.598;2022-11-20T01:03:36;36.05;;;20.77;;
23716;SDS011;22094;52.130;5.598;2022-11-20T01:06:07;37.50;;;19.70;;
23716;SDS011;22094;52.130;5.598;2022-11-20T01:08:37;32.53;;;19.83;;
23716;SDS011;22094;52.130;5.598;2022-11-20T01:11:04;39.03;;;20.77;;
23716;SDS011;22094;52.130;5.598;2022-11-20T01:13:32;37.10;;;20.48;;
23716;SDS011;22094;52.130;5.598;2022-11-20T01:18:33;35.58;;;19.75;;
23716;SDS011;22094;52.130;5.598;2022-11-20T01:21:03;35.40;;;18.88;;
23716;SDS011;22094;52.130;5.598;2022-11-20T01:23:31;36.80;;;19.15;;
23716;SDS011;22094;52.130;5.598;2022-11-20T01:25:59;34.22;;;19.00;;
23716;SDS011;22094;52.130;5.598;2022-11-20T01:28:26;38.53;;;20.17;;
23716;SDS011;22094;52.130;5.598;2022-11-20T01:30:52;34.97;;;19.20;;
23716;SDS011;22094;52.130;5.598;2022-11-20T01:33:18;34.50;;;19.02;;
23716;SDS011;22094;52.130;5.598;2022-11-20T01:35:43;34.03;;;18.88;;
23716;SDS011;22094;52.130;5.598;2022-11-20T01:38:09;32.90;;;17.80;;
23716;SDS011;22094;52.130;5.598;2022-11-20T01:40:34;34.55;;;18.83;;
23716;SDS011;22094;52.130;5.598;2022-11-20T01:43:12;38.92;;;20.00;;
23716;SDS011;22094;52.130;5.598;2022-11-20T01:48:45;34.08;;;17.80;;
23716;SDS011;22094;52.130;5.598;2022-11-20T01:51:17;38.85;;;18.13;;
23716;SDS011;22094;52.130;5.598;2022-11-20T01:53:58;34.58;;;17.58;;
23716;SDS011;22094;52.130;5.598;2022-11-20T01:56:29;32.47;;;17.13;;
23716;SDS011;22094;52.130;5.598;2022-11-20T01:58:58;29.45;;;15.95;;
23716;SDS011;22094;52.130;5.598;2022-11-20T02:01:26;31.80;;;15.82;;
23716;SDS011;22094;52.130;5.598;2022-11-20T02:03:51;33.78;;;16.25;;
23716;SDS011;22094;52.130;5.598;2022-11-20T02:06:28;29.88;;;15.02;;
23716;SDS011;22094;52.130;5.598;2022-11-20T02:08:56;29.48;;;15.75;;
23716;SDS011;22094;52.130;5.598;2022-11-20T02:11:22;32.10;;;15.75;;
23716;SDS011;22094;52.130;5.598;2022-11-20T02:13:47;28.90;;;15.95;;
23716;SDS011;22094;52.130;5.598;2022-11-20T02:16:19;32.60;;;16.40;;
23716;SDS011;22094;52.130;5.598;2022-11-20T02:18:48;30.60;;;15.70;;
23716;SDS011;22094;52.130;5.598;2022-11-20T02:21:18;29.08;;;15.35;;
23716;SDS011;22094;52.130;5.598;2022-11-20T02:26:29;31.05;;;16.23;;
23716;SDS011;22094;52.130;5.598;2022-11-20T02:28:58;33.75;;;15.77;;
23716;SDS011;22094;52.130;5.598;2022-11-20T02:31:25;33.63;;;17.40;;
23716;SDS011;22094;52.130;5.598;2022-11-20T02:33:54;35.25;;;16.50;;
23716;SDS011;22094;52.130;5.598;2022-11-20T02:36:21;31.75;;;16.63;;
23716;SDS011;22094;52.130;5.598;2022-11-20T02:38:50;31.38;;;15.82;;
23716;SDS011;22094;52.130;5.598;2022-11-20T02:41:15;28.55;;;15.88;;
23716;SDS011;22094;52.130;5.598;2022-11-20T02:43:41;30.15;;;16.02;;
23716;SDS011;22094;52.130;5.598;2022-11-20T02:46:07;32.40;;;15.43;;
23716;SDS011;22094;52.130;5.598;2022-11-20T02:48:33;31.10;;;14.95;;
23716;SDS011;22094;52.130;5.598;2022-11-20T02:50:58;32.40;;;16.75;;
23716;SDS011;22094;52.130;5.598;2022-11-20T02:53:24;31.98;;;16.48;;
23716;SDS011;22094;52.130;5.598;2022-11-20T02:55:49;33.70;;;16.60;;
23716;SDS011;22094;52.130;5.598;2022-11-20T02:58:15;32.25;;;16.95;;
23716;SDS011;22094;52.130;5.598;2022-11-20T03:00:40;32.05;;;17.50;;
23716;SDS011;22094;52.130;5.598;2022-11-20T03:03:06;33.33;;;17.70;;
23716;SDS011;22094;52.130;5.598;2022-11-20T03:05:31;35.50;;;18.05;;
23716;SDS011;22094;52.130;5.598;2022-11-20T03:07:57;32.70;;;17.23;;
23716;SDS011;22094;52.130;5.598;2022-11-20T03:10:22;33.60;;;16.67;;
23716;SDS011;22094;52.130;5.598;2022-11-20T03:12:52;34.08;;;17.35;;
23716;SDS011;22094;52.130;5.598;2022-11-20T03:15:19;31.20;;;15.85;;
23716;SDS011;22094;52.130;5.598;2022-11-20T03:17:44;36.50;;;17.75;;
23716;SDS011;22094;52.130;5.598;2022-11-20T03:20:10;35.42;;;17.02;;
23716;SDS011;22094;52.130;5.598;2022-11-20T03:22:36;30.15;;;16.80;;
23716;SDS011;22094;52.130;5.598;2022-11-20T03:25:01;33.13;;;16.48;;
23716;SDS011;22094;52.130;5.598;2022-11-20T03:27:31;38.92;;;18.15;;
23716;SDS011;22094;52.130;5.598;2022-11-20T03:30:00;33.63;;;17.83;;
23716;SDS011;22094;52.130;5.598;2022-11-20T03:32:26;34.28;;;18.45;;
23716;SDS011;22094;52.130;5.598;2022-11-20T03:34:51;32.17;;;17.67;;
23716;SDS011;22094;52.130;5.598;2022-11-20T03:37:17;32.38;;;18.10;;
23716;SDS011;22094;52.130;5.598;2022-11-20T03:39:42;31.48;;;17.02;;
23716;SDS011;22094;52.130;5.598;2022-11-20T03:42:08;33.47;;;17.55;;
23716;SDS011;22094;52.130;5.598;2022-11-20T03:44:54;35.40;;;18.85;;
23716;SDS011;22094;52.130;5.598;2022-11-20T03:47:20;34.63;;;17.90;;
23716;SDS011;22094;52.130;5.598;2022-11-20T03:49:45;35.10;;;18.50;;
23716;SDS011;22094;52.130;5.598;2022-11-20T03:52:11;38.38;;;19.00;;
23716;SDS011;22094;52.130;5.598;2022-11-20T03:54:36;34.67;;;17.73;;
23716;SDS011;22094;52.130;5.598;2022-11-20T03:57:02;32.70;;;17.33;;
23716;SDS011;22094;52.130;5.598;2022-11-20T03:59:27;34.05;;;18.02;;
23716;SDS011;22094;52.130;5.598;2022-11-20T04:01:53;37.42;;;18.67;;
23716;SDS011;22094;52.130;5.598;2022-11-20T04:04:18;35.30;;;17.90;;
23716;SDS011;22094;52.130;5.598;2022-11-20T04:06:44;33.50;;;18.70;;
23716;SDS011;22094;52.130;5.598;2022-11-20T04:09:09;34.05;;;17.73;;
23716;SDS011;22094;52.130;5.598;2022-11-20T04:11:36;34.95;;;18.35;;
23716;SDS011;22094;52.130;5.598;2022-11-20T04:14:04;32.92;;;17.77;;
23716;SDS011;22094;52.130;5.598;2022-11-20T04:16:32;35.65;;;17.67;;
23716;SDS011;22094;52.130;5.598;2022-11-20T04:19:00;33.30;;;17.50;;
23716;SDS011;22094;52.130;5.598;2022-11-20T04:21:28;33.40;;;17.52;;
23716;SDS011;22094;52.130;5.598;2022-11-20T04:23:54;34.13;;;17.65;;
23716;SDS011;22094;52.130;5.598;2022-11-20T04:26:21;36.72;;;17.90;;
23716;SDS011;22094;52.130;5.598;2022-11-20T04:28:48;35.42;;;18.08;;
23716;SDS011;22094;52.130;5.598;2022-11-20T04:31:15;34.10;;;18.00;;
23716;SDS011;22094;52.130;5.598;2022-11-20T04:33:42;35.10;;;17.23;;
23716;SDS011;22094;52.130;5.598;2022-11-20T04:36:11;34.22;;;17.25;;
23716;SDS011;22094;52.130;5.598;2022-11-20T04:38:37;34.22;;;16.95;;
23716;SDS011;22094;52.130;5.598;2022-11-20T04:41:04;37.47;;;19.08;;
23716;SDS011;22094;52.130;5.598;2022-11-20T04:43:31;35.10;;;17.60;;
23716;SDS011;22094;52.130;5.598;2022-11-20T04:45:58;36.67;;;18.58;;
23716;SDS011;22094;52.130;5.598;2022-11-20T04:48:24;33.90;;;18.55;;
23716;SDS011;22094;52.130;5.598;2022-11-20T04:50:52;34.92;;;17.85;;
23716;SDS011;22094;52.130;5.598;2022-11-20T04:53:17;36.65;;;18.08;;
23716;SDS011;22094;52.130;5.598;2022-11-20T04:55:43;37.55;;;18.73;;
23716;SDS011;22094;52.130;5.598;2022-11-20T04:58:09;38.20;;;19.23;;
23716;SDS011;22094;52.130;5.598;2022-11-20T05:00:35;35.63;;;17.88;;
23716;SDS011;22094;52.130;5.598;2022-11-20T05:03:00;35.83;;;18.13;;
23716;SDS011;22094;52.130;5.598;2022-11-20T05:05:26;36.03;;;18.65;;
23716;SDS011;22094;52.130;5.598;2022-11-20T05:07:52;36.70;;;18.42;;
23716;SDS011;22094;52.130;5.598;2022-11-20T05:10:17;34.97;;;17.27;;
23716;SDS011;22094;52.130;5.598;2022-11-20T05:12:43;37.28;;;18.15;;
23716;SDS011;22094;52.130;5.598;2022-11-20T05:15:08;35.00;;;18.52;;
23716;SDS011;22094;52.130;5.598;2022-11-20T05:17:34;38.95;;;18.45;;
23716;SDS011;22094;52.130;5.598;2022-11-20T05:20:00;35.30;;;18.10;;
23716;SDS011;22094;52.130;5.598;2022-11-20T05:22:25;37.78;;;19.25;;
23716;SDS011;22094;52.130;5.598;2022-11-20T05:24:51;38.40;;;18.80;;
23716;SDS011;22094;52.130;5.598;2022-11-20T05:27:16;35.72;;;18.02;;
23716;SDS011;22094;52.130;5.598;2022-11-20T05:29:43;33.55;;;16.83;;
23716;SDS011;22094;52.130;5.598;2022-11-20T05:32:08;36.58;;;18.95;;
23716;SDS011;22094;52.130;5.598;2022-11-20T05:34:34;37.92;;;18.63;;
23716;SDS011;22094;52.130;5.598;2022-11-20T05:37:01;37.25;;;19.23;;
23716;SDS011;22094;52.130;5.598;2022-11-20T05:39:27;41.38;;;19.33;;
23716;SDS011;22094;52.130;5.598;2022-11-20T05:41:52;33.90;;;17.48;;
23716;SDS011;22094;52.130;5.598;2022-11-20T05:44:38;36.58;;;18.42;;
23716;SDS011;22094;52.130;5.598;2022-11-20T05:47:04;37.97;;;17.67;;
23716;SDS011;22094;52.130;5.598;2022-11-20T05:49:30;36.72;;;18.48;;
23716;SDS011;22094;52.130;5.598;2022-11-20T05:51:55;35.20;;;18.75;;
23716;SDS011;22094;52.130;5.598;2022-11-20T05:54:21;36.95;;;18.70;;
23716;SDS011;22094;52.130;5.598;2022-11-20T05:56:46;33.50;;;17.83;;
23716;SDS011;22094;52.130;5.598;2022-11-20T05:59:12;38.25;;;18.75;;
23716;SDS011;22094;52.130;5.598;2022-11-20T06:01:37;35.30;;;18.40;;
23716;SDS011;22094;52.130;5.598;2022-11-20T06:04:03;34.05;;;18.10;;
23716;SDS011;22094;52.130;5.598;2022-11-20T06:06:28;37.67;;;18.58;;
23716;SDS011;22094;52.130;5.598;2022-11-20T06:08:54;31.95;;;17.45;;
23716;SDS011;22094;52.130;5.598;2022-11-20T06:11:20;35.85;;;16.95;;
23716;SDS011;22094;52.130;5.598;2022-11-20T06:13:46;32.08;;;17.25;;
23716;SDS011;22094;52.130;5.598;2022-11-20T06:16:13;30.67;;;16.25;;
23716;SDS011;22094;52.130;5.598;2022-11-20T06:18:40;32.90;;;16.85;;
23716;SDS011;22094;52.130;5.598;2022-11-20T06:21:16;34.40;;;17.55;;
23716;SDS011;22094;52.130;5.598;2022-11-20T06:23:44;29.98;;;16.40;;
23716;SDS011;22094;52.130;5.598;2022-11-20T06:26:11;31.15;;;16.95;;
23716;SDS011;22094;52.130;5.598;2022-11-20T06:28:47;31.27;;;16.45;;
23716;SDS011;22094;52.130;5.598;2022-11-20T06:31:14;34.97;;;17.55;;
23716;SDS011;22094;52.130;5.598;2022-11-20T06:33:42;34.00;;;16.20;;
23716;SDS011;22094;52.130;5.598;2022-11-20T06:36:09;33.38;;;16.52;;
23716;SDS011;22094;52.130;5.598;2022-11-20T06:38:36;37.38;;;17.50;;
23716;SDS011;22094;52.130;5.598;2022-11-20T06:41:03;35.17;;;18.08;;
23716;SDS011;22094;52.130;5.598;2022-11-20T06:43:29;31.92;;;16.73;;
23716;SDS011;22094;52.130;5.598;2022-11-20T06:45:55;35.97;;;16.88;;
23716;SDS011;22094;52.130;5.598;2022-11-20T06:48:22;30.08;;;16.50;;
23716;SDS011;22094;52.130;5.598;2022-11-20T06:50:48;34.17;;;16.63;;
23716;SDS011;22094;52.130;5.598;2022-11-20T06:53:14;32.33;;;16.15;;
23716;SDS011;22094;52.130;5.598;2022-11-20T06:55:46;34.13;;;17.73;;
23716;SDS011;22094;52.130;5.598;2022-11-20T06:58:12;34.47;;;17.60;;
23716;SDS011;22094;52.130;5.598;2022-11-20T07:00:39;33.00;;;16.52;;
23716;SDS011;22094;52.130;5.598;2022-11-20T07:03:05;37.25;;;17.05;;
23716;SDS011;22094;52.130;5.598;2022-11-20T07:05:33;36.70;;;17.90;;
23716;SDS011;22094;52.130;5.598;2022-11-20T07:07:59;34.92;;;17.15;;
23716;SDS011;22094;52.130;5.598;2022-11-20T07:10:25;32.42;;;16.80;;
23716;SDS011;22094;52.130;5.598;2022-11-20T07:12:51;34.15;;;17.50;;
23716;SDS011;22094;52.130;5.598;2022-11-20T07:15:18;33.13;;;17.15;;
23716;SDS011;22094;52.130;5.598;2022-11-20T07:17:45;34.53;;;16.92;;
23716;SDS011;22094;52.130;5.598;2022-11-20T07:20:10;34.10;;;16.77;;
23716;SDS011;22094;52.130;5.598;2022-11-20T07:22:37;31.50;;;16.65;;
23716;SDS011;22094;52.130;5.598;2022-11-20T07:25:02;30.30;;;16.50;;
23716;SDS011;22094;52.130;5.598;2022-11-20T07:27:29;36.08;;;16.90;;
23716;SDS011;22094;52.130;5.598;2022-11-20T07:29:54;33.00;;;17.75;;
23716;SDS011;22094;52.130;5.598;2022-11-20T07:32:20;36.38;;;17.77;;
23716;SDS011;22094;52.130;5.598;2022-11-20T07:34:46;31.85;;;16.70;;
23716;SDS011;22094;52.130;5.598;2022-11-20T07:37:12;34.00;;;17.30;;
23716;SDS011;22094;52.130;5.598;2022-11-20T07:39:38;36.67;;;18.77;;
23716;SDS011;22094;52.130;5.598;2022-11-20T07:42:03;36.80;;;19.08;;
23716;SDS011;22094;52.130;5.598;2022-11-20T07:44:29;31.67;;;17.52;;
23716;SDS011;22094;52.130;5.598;2022-11-20T07:46:54;33.85;;;18.13;;
23716;SDS011;22094;52.130;5.598;2022-11-20T07:49:20;33.50;;;18.33;;
23716;SDS011;22094;52.130;5.598;2022-11-20T07:51:45;34.40;;;18.80;;
23716;SDS011;22094;52.130;5.598;2022-11-20T07:54:11;33.42;;;17.48;;
23716;SDS011;22094;52.130;5.598;2022-11-20T07:56:36;39.00;;;21.15;;
23716;SDS011;22094;52.130;5.598;2022-11-20T07:59:02;35.15;;;19.55;;
23716;SDS011;22094;52.130;5.598;2022-11-20T08:01:28;39.97;;;20.67;;
23716;SDS011;22094;52.130;5.598;2022-11-20T08:03:54;37.88;;;21.35;;
23716;SDS011;22094;52.130;5.598;2022-11-20T08:06:20;40.42;;;22.15;;
23716;SDS011;22094;52.130;5.598;2022-11-20T08:08:46;39.58;;;22.30;;
23716;SDS011;22094;52.130;5.598;2022-11-20T08:11:12;37.60;;;21.95;;
23716;SDS011;22094;52.130;5.598;2022-11-20T08:13:56;42.65;;;22.52;;
23716;SDS011;22094;52.130;5.598;2022-11-20T08:16:37;37.08;;;20.52;;
23716;SDS011;22094;52.130;5.598;2022-11-20T08:19:03;38.55;;;21.52;;
23716;SDS011;22094;52.130;5.598;2022-11-20T08:21:29;40.08;;;21.73;;
23716;SDS011;22094;52.130;5.598;2022-11-20T08:23:56;36.63;;;21.40;;
23716;SDS011;22094;52.130;5.598;2022-11-20T08:26:22;41.50;;;24.15;;
23716;SDS011;22094;52.130;5.598;2022-11-20T08:28:48;44.33;;;24.48;;
23716;SDS011;22094;52.130;5.598;2022-11-20T08:31:14;47.95;;;27.02;;
23716;SDS011;22094;52.130;5.598;2022-11-20T08:33:40;38.38;;;22.45;;
23716;SDS011;22094;52.130;5.598;2022-11-20T08:36:05;41.72;;;23.17;;
23716;SDS011;22094;52.130;5.598;2022-11-20T08:38:32;42.97;;;24.77;;
23716;SDS011;22094;52.130;5.598;2022-11-20T08:40:58;43.65;;;24.83;;
23716;SDS011;22094;52.130;5.598;2022-11-20T08:43:43;96.85;;;52.55;;
23716;SDS011;22094;52.130;5.598;2022-11-20T08:46:09;79.57;;;43.28;;
23716;SDS011;22094;52.130;5.598;2022-11-20T08:48:35;93.30;;;49.42;;
23716;SDS011;22094;52.130;5.598;2022-11-20T08:51:00;83.78;;;45.03;;
23716;SDS011;22094;52.130;5.598;2022-11-20T08:53:26;78.55;;;43.35;;
23716;SDS011;22094;52.130;5.598;2022-11-20T08:55:52;58.47;;;33.17;;
23716;SDS011;22094;52.130;5.598;2022-11-20T08:58:18;51.97;;;30.83;;
23716;SDS011;22094;52.130;5.598;2022-11-20T09:00:43;52.13;;;32.35;;
23716;SDS011;22094;52.130;5.598;2022-11-20T09:03:09;47.50;;;28.00;;
23716;SDS011;22094;52.130;5.598;2022-11-20T09:05:34;52.42;;;28.52;;
23716;SDS011;22094;52.130;5.598;2022-11-20T09:08:00;48.38;;;28.23;;
23716;SDS011;22094;52.130;5.598;2022-11-20T09:10:26;47.80;;;28.40;;
23716;SDS011;22094;52.130;5.598;2022-11-20T09:12:52;54.03;;;29.75;;
23716;SDS011;22094;52.130;5.598;2022-11-20T09:15:20;53.42;;;29.63;;
23716;SDS011;22094;52.130;5.598;2022-11-20T09:17:56;54.63;;;30.25;;
23716;SDS011;22094;52.130;5.598;2022-11-20T09:20:23;54.75;;;30.58;;
23716;SDS011;22094;52.130;5.598;2022-11-20T09:22:50;58.88;;;34.30;;
23716;SDS011;22094;52.130;5.598;2022-11-20T09:25:16;59.28;;;33.55;;
23716;SDS011;22094;52.130;5.598;2022-11-20T09:27:42;70.65;;;42.17;;
23716;SDS011;22094;52.130;5.598;2022-11-20T09:30:09;62.38;;;34.92;;
23716;SDS011;22094;52.130;5.598;2022-11-20T09:32:35;53.33;;;32.55;;
23716;SDS011;22094;52.130;5.598;2022-11-20T09:35:00;57.22;;;34.17;;
23716;SDS011;22094;52.130;5.598;2022-11-20T09:37:26;55.30;;;33.00;;
23716;SDS011;22094;52.130;5.598;2022-11-20T09:39:52;54.35;;;32.97;;
23716;SDS011;22094;52.130;5.598;2022-11-20T09:50:40;48.53;;;29.08;;
23716;SDS011;22094;52.130;5.598;2022-11-20T09:55:59;48.83;;;30.73;;
23716;SDS011;22094;52.130;5.598;2022-11-20T09:58:35;49.88;;;31.02;;
23716;SDS011;22094;52.130;5.598;2022-11-20T10:01:19;54.13;;;31.85;;
23716;SDS011;22094;52.130;5.598;2022-11-20T10:06:21;57.67;;;34.38;;
23716;SDS011;22094;52.130;5.598;2022-11-20T10:08:54;52.85;;;33.25;;
23716;SDS011;22094;52.130;5.598;2022-11-20T10:11:32;53.83;;;32.90;;
23716;SDS011;22094;52.130;5.598;2022-11-20T10:17:02;57.72;;;35.92;;
23716;SDS011;22094;52.130;5.598;2022-11-20T10:19:36;62.42;;;37.53;;
23716;SDS011;22094;52.130;5.598;2022-11-20T10:25:18;65.43;;;37.97;;
23716;SDS011;22094;52.130;5.598;2022-11-20T10:27:49;63.33;;;36.60;;
23716;SDS011;22094;52.130;5.598;2022-11-20T10:30:20;63.92;;;37.78;;
23716;SDS011;22094;52.130;5.598;2022-11-20T10:32:52;59.03;;;34.80;;
23716;SDS011;22094;52.130;5.598;2022-11-20T10:35:25;58.42;;;35.00;;
23716;SDS011;22094;52.130;5.598;2022-11-20T10:38:20;59.15;;;34.05;;
23716;SDS011;22094;52.130;5.598;2022-11-20T10:40:57;60.70;;;36.42;;
23716;SDS011;22094;52.130;5.598;2022-11-20T10:43:44;61.47;;;35.15;;
23716;SDS011;22094;52.130;5.598;2022-11-20T10:46:14;61.00;;;36.38;;
23716;SDS011;22094;52.130;5.598;2022-11-20T10:48:43;58.13;;;34.92;;
23716;SDS011;22094;52.130;5.598;2022-11-20T10:54:06;56.88;;;35.03;;
23716;SDS011;22094;52.130;5.598;2022-11-20T10:59:19;59.80;;;35.38;;
23716;SDS011;22094;52.130;5.598;2022-11-20T11:02:16;59.05;;;35.70;;
23716;SDS011;22094;52.130;5.598;2022-11-20T11:04:45;59.03;;;36.42;;
23716;SDS011;22094;52.130;5.598;2022-11-20T11:10:00;59.80;;;35.33;;
23716;SDS011;22094;52.130;5.598;2022-11-20T11:12:27;60.38;;;34.90;;
23716;SDS011;22094;52.130;5.598;2022-11-20T11:14:55;63.88;;;36.83;;
23716;SDS011;22094;52.130;5.598;2022-11-20T11:17:31;57.53;;;35.30;;
23716;SDS011;22094;52.130;5.598;2022-11-20T11:19:58;59.13;;;35.30;;
23716;SDS011;22094;52.130;5.598;2022-11-20T11:22:25;58.33;;;33.97;;
23716;SDS011;22094;52.130;5.598;2022-11-20T11:24:55;59.00;;;35.00;;
23716;SDS011;22094;52.130;5.598;2022-11-20T11:27:20;58.40;;;34.80;;
23716;SDS011;22094;52.130;5.598;2022-11-20T11:29:46;58.60;;;35.03;;
23716;SDS011;22094;52.130;5.598;2022-11-20T11:32:13;67.18;;;41.67;;
23716;SDS011;22094;52.130;5.598;2022-11-20T11:34:58;67.30;;;39.25;;
23716;SDS011;22094;52.130;5.598;2022-11-20T11:37:36;61.97;;;38.58;;
23716;SDS011;22094;52.130;5.598;2022-11-20T11:40:03;58.72;;;36.78;;
23716;SDS011;22094;52.130;5.598;2022-11-20T11:42:30;89.30;;;50.95;;
23716;SDS011;22094;52.130;5.598;2022-11-20T11:44:56;73.88;;;42.47;;
23716;SDS011;22094;52.130;5.598;2022-11-20T11:47:37;101.75;;;55.42;;
23716;SDS011;22094;52.130;5.598;2022-11-20T11:56:04;71.38;;;40.53;;
23716;SDS011;22094;52.130;5.598;2022-11-20T11:58:46;65.35;;;38.40;;
23716;SDS011;22094;52.130;5.598;2022-11-20T12:04:23;45.00;;;30.08;;
23716;SDS011;22094;52.130;5.598;2022-11-20T12:07:15;45.45;;;29.33;;
23716;SDS011;22094;52.130;5.598;2022-11-20T12:09:48;47.65;;;28.67;;
23716;SDS011;22094;52.130;5.598;2022-11-20T12:12:20;43.72;;;28.90;;
23716;SDS011;22094;52.130;5.598;2022-11-20T12:14:49;45.95;;;29.30;;
23716;SDS011;22094;52.130;5.598;2022-11-20T12:17:19;45.92;;;29.10;;
23716;SDS011;22094;52.130;5.598;2022-11-20T12:19:45;43.38;;;26.90;;
23716;SDS011;22094;52.130;5.598;2022-11-20T12:24:58;47.45;;;29.92;;
23716;SDS011;22094;52.130;5.598;2022-11-20T12:30:15;45.75;;;27.25;;
23716;SDS011;22094;52.130;5.598;2022-11-20T12:38:38;45.20;;;29.15;;
23716;SDS011;22094;52.130;5.598;2022-11-20T12:52:53;46.08;;;27.88;;
23716;SDS011;22094;52.130;5.598;2022-11-20T12:55:41;42.28;;;26.13;;
23716;SDS011;22094;52.130;5.598;2022-11-20T13:06:56;43.88;;;28.55;;
23716;SDS011;22094;52.130;5.598;2022-11-20T13:09:22;43.80;;;27.65;;
23716;SDS011;22094;52.130;5.598;2022-11-20T13:11:51;44.63;;;26.88;;
23716;SDS011;22094;52.130;5.598;2022-11-20T13:17:17;41.20;;;26.75;;
23716;SDS011;22094;52.130;5.598;2022-11-20T13:19:55;44.17;;;27.27;;
23716;SDS011;22094;52.130;5.598;2022-11-20T13:22:45;44.03;;;26.95;;
23716;SDS011;22094;52.130;5.598;2022-11-20T13:25:29;45.58;;;27.67;;
23716;SDS011;22094;52.130;5.598;2022-11-20T13:30:34;48.47;;;28.92;;
23716;SDS011;22094;52.130;5.598;2022-11-20T13:33:05;48.05;;;29.52;;
23716;SDS011;22094;52.130;5.598;2022-11-20T13:38:04;49.28;;;29.25;;
23716;SDS011;22094;52.130;5.598;2022-11-20T13:40:36;49.08;;;29.42;;
23716;SDS011;22094;52.130;5.598;2022-11-20T13:46:06;52.15;;;31.92;;
23716;SDS011;22094;52.130;5.598;2022-11-20T13:48:40;52.30;;;30.75;;
23716;SDS011;22094;52.130;5.598;2022-11-20T13:51:16;50.42;;;29.33;;
23716;SDS011;22094;52.130;5.598;2022-11-20T13:54:04;53.67;;;31.35;;
23716;SDS011;22094;52.130;5.598;2022-11-20T13:56:58;51.92;;;32.58;;
23716;SDS011;22094;52.130;5.598;2022-11-20T14:02:11;52.60;;;31.10;;
23716;SDS011;22094;52.130;5.598;2022-11-20T14:04:45;50.10;;;30.85;;
23716;SDS011;22094;52.130;5.598;2022-11-20T14:07:13;52.75;;;30.65;;
23716;SDS011;22094;52.130;5.598;2022-11-20T14:09:48;50.72;;;31.02;;
23716;SDS011;22094;52.130;5.598;2022-11-20T14:12:18;54.03;;;31.88;;
23716;SDS011;22094;52.130;5.598;2022-11-20T14:14:49;54.13;;;32.10;;
23716;SDS011;22094;52.130;5.598;2022-11-20T14:17:21;58.88;;;33.97;;
23716;SDS011;22094;52.130;5.598;2022-11-20T14:20:07;55.78;;;33.35;;
23716;SDS011;22094;52.130;5.598;2022-11-20T14:22:39;55.97;;;33.97;;
23716;SDS011;22094;52.130;5.598;2022-11-20T14:27:52;56.42;;;34.42;;
23716;SDS011;22094;52.130;5.598;2022-11-20T14:30:21;53.15;;;31.33;;
23716;SDS011;22094;52.130;5.598;2022-11-20T14:32:48;56.30;;;33.85;;
23716;SDS011;22094;52.130;5.598;2022-11-20T14:35:25;54.70;;;32.53;;
23716;SDS011;22094;52.130;5.598;2022-11-20T14:37:52;54.63;;;31.77;;
23716;SDS011;22094;52.130;5.598;2022-11-20T14:40:27;53.47;;;32.40;;
23716;SDS011;22094;52.130;5.598;2022-11-20T14:43:01;55.55;;;31.00;;
23716;SDS011;22094;52.130;5.598;2022-11-20T14:45:39;60.72;;;33.80;;
23716;SDS011;22094;52.130;5.598;2022-11-20T14:48:05;59.40;;;34.03;;
23716;SDS011;22094;52.130;5.598;2022-11-20T14:50:34;62.83;;;34.20;;
23716;SDS011;22094;52.130;5.598;2022-11-20T14:53:00;64.90;;;35.50;;
23716;SDS011;22094;52.130;5.598;2022-11-20T14:55:27;63.15;;;35.70;;
23716;SDS011;22094;52.130;5.598;2022-11-20T14:58:04;66.88;;;35.30;;
23716;SDS011;22094;52.130;5.598;2022-11-20T15:00:32;61.20;;;35.05;;
23716;SDS011;22094;52.130;5.598;2022-11-20T15:03:13;63.20;;;35.20;;
23716;SDS011;22094;52.130;5.598;2022-11-20T15:05:44;61.67;;;35.58;;
23716;SDS011;22094;52.130;5.598;2022-11-20T15:08:12;59.85;;;35.67;;
23716;SDS011;22094;52.130;5.598;2022-11-20T15:10:38;59.17;;;34.78;;
23716;SDS011;22094;52.130;5.598;2022-11-20T15:13:12;65.93;;;35.72;;
23716;SDS011;22094;52.130;5.598;2022-11-20T15:15:58;59.47;;;34.40;;
23716;SDS011;22094;52.130;5.598;2022-11-20T15:18:32;67.93;;;37.08;;
23716;SDS011;22094;52.130;5.598;2022-11-20T15:21:03;68.35;;;37.50;;
23716;SDS011;22094;52.130;5.598;2022-11-20T15:23:36;67.43;;;37.28;;
23716;SDS011;22094;52.130;5.598;2022-11-20T15:26:03;68.15;;;36.95;;
23716;SDS011;22094;52.130;5.598;2022-11-20T15:28:31;75.00;;;40.65;;
23716;SDS011;22094;52.130;5.598;2022-11-20T15:30:59;72.28;;;39.78;;
23716;SDS011;22094;52.130;5.598;2022-11-20T15:33:25;75.03;;;41.38;;
23716;SDS011;22094;52.130;5.598;2022-11-20T15:35:51;74.00;;;39.70;;
23716;SDS011;22094;52.130;5.598;2022-11-20T15:38:16;72.40;;;39.40;;
23716;SDS011;22094;52.130;5.598;2022-11-20T15:40:42;73.30;;;38.88;;
23716;SDS011;22094;52.130;5.598;2022-11-20T15:43:07;67.35;;;37.67;;
23716;SDS011;22094;52.130;5.598;2022-11-20T15:48:09;73.20;;;39.60;;
23716;SDS011;22094;52.130;5.598;2022-11-20T15:50:47;76.38;;;38.92;;
23716;SDS011;22094;52.130;5.598;2022-11-20T15:53:13;76.72;;;41.90;;
23716;SDS011;22094;52.130;5.598;2022-11-20T15:55:39;72.25;;;38.08;;
23716;SDS011;22094;52.130;5.598;2022-11-20T15:58:05;78.63;;;39.10;;
23716;SDS011;22094;52.130;5.598;2022-11-20T16:00:30;72.57;;;38.83;;
23716;SDS011;22094;52.130;5.598;2022-11-20T16:02:56;74.85;;;40.17;;
23716;SDS011;22094;52.130;5.598;2022-11-20T16:05:21;72.85;;;39.60;;